Time;durP1;ratioP1;P1;durP2;ratioP2;P2;SDS_P1;SDS_P2;PMS_P1;PMS_P2;Temp;Humidity;BMP_temperature;BMP_pressure;BME280_temperature;BME280_humidity;BME280_pressure;Samples;Min_cycle;Max_cycle;Signal;HPM_P1;HPM_P2
2023/02/21 02:15:48;;;;;;;;;;;7.40;73.50;;;;;;4998754;28;93190;-38
2023/02/21 02:18:16;;;;;;;;;;;7.40;73.50;;;;;;4998794;28;92187;-38
2023/02/21 02:21:00;;;;;;;;;;;7.40;73.60;;;;;;4999316;28;92983;-38
2023/02/21 02:23:31;;;;;;;;;;;7.40;73.70;;;;;;5000161;28;94566;-38
2023/02/21 02:25:57;;;;;;;;;;;7.30;73.50;;;;;;5002779;28;92150;-38
2023/02/21 02:28:46;;;;;;;;;;;7.30;73.50;;;;;;5002935;28;93881;-38
2023/02/21 02:31:30;;;;;;;;;;;7.30;73.60;;;;;;4981792;28;93381;-38
2023/02/21 02:34:07;;;;;;;;;;;7.30;73.50;;;;;;5002245;28;92436;-38
2023/02/21 02:36:35;;;;;;;;;;;7.30;73.50;;;;;;5004445;28;93103;-38
2023/02/21 02:39:09;;;;;;;;;;;7.30;73.60;;;;;;5002028;28;92191;-38
2023/02/21 02:41:44;;;;;;;;;;;7.30;73.60;;;;;;5002099;28;94101;-38
2023/02/21 02:44:13;;;;;;;;;;;7.30;73.50;;;;;;5001787;28;94337;-38
2023/02/21 02:46:41;;;;;;;;;;;7.30;73.60;;;;;;5002087;28;92269;-39
2023/02/21 02:49:15;;;;;;;;;;;7.30;73.70;;;;;;5002391;28;93314;-38
2023/02/21 02:51:40;;;;;;;;;;;7.20;73.60;;;;;;5001560;28;95049;-38
2023/02/21 02:54:06;;;;;;;;;;;7.20;73.60;;;;;;5002545;28;91435;-38
2023/02/21 02:56:34;;;;;;;;;;;7.20;73.60;;;;;;5002248;28;92354;-38
2023/02/21 02:59:09;;;;;;;;;;;7.20;73.60;;;;;;5004387;28;94736;-38
2023/02/21 03:01:44;;;;;;;;;;;7.20;73.70;;;;;;5001245;28;93851;-38
2023/02/21 03:04:19;;;;;;;;;;;7.20;73.70;;;;;;5001658;28;92240;-38
2023/02/21 03:06:47;;;;;;;;;;;7.20;73.70;;;;;;5001179;28;92130;-38
2023/02/21 03:09:21;;;;;;;;;;;7.20;73.70;;;;;;5001724;28;93669;-38
2023/02/21 03:12:02;;;;;;;;;;;7.20;73.70;;;;;;5000819;28;94909;-38
2023/02/21 03:14:40;;;;;;;;;;;7.10;73.60;;;;;;5001687;28;92050;-39
2023/02/21 03:17:08;;;;;;;;;;;7.10;73.60;;;;;;5001634;28;94896;-38
2023/02/21 03:19:36;;;;;;;;;;;7.10;73.70;;;;;;5001558;28;93556;-38
2023/02/21 03:22:04;;;;;;;;;;;7.10;73.80;;;;;;5004350;28;92202;-39
2023/02/21 03:24:30;;;;;;;;;;;7.10;73.60;;;;;;5000850;28;94696;-38
2023/02/21 03:26:58;;;;;;;;;;;7.10;73.70;;;;;;5000922;28;93194;-38
2023/02/21 03:29:24;;;;;;;;;;;7.10;73.70;;;;;;5001744;28;93370;-39
2023/02/21 03:31:53;;;;;;;;;;;7.10;73.80;;;;;;5000756;28;94229;-39
2023/02/21 03:34:19;;;;;;;;;;;7.10;73.80;;;;;;5000078;28;92178;-38
2023/02/21 03:36:45;;;;;;;;;;;7.10;73.80;;;;;;5000997;28;93712;-38
2023/02/21 03:39:10;;;;;;;;;;;7.00;73.80;;;;;;5000727;28;94585;-39
2023/02/21 03:41:36;;;;;;;;;;;7.00;73.80;;;;;;5001443;28;92133;-38
2023/02/21 03:44:01;;;;;;;;;;;7.00;73.80;;;;;;5004105;28;94041;-38
2023/02/21 03:46:27;;;;;;;;;;;7.00;73.80;;;;;;5001132;28;92140;-38
2023/02/21 03:48:52;;;;;;;;;;;7.00;73.80;;;;;;5001171;28;94293;-38
2023/02/21 03:51:18;;;;;;;;;;;6.90;73.90;;;;;;4999849;28;95618;-38
2023/02/21 03:53:43;;;;;;;;;;;6.90;73.90;;;;;;5000988;28;92185;-38
2023/02/21 03:56:09;;;;;;;;;;;6.90;73.80;;;;;;5001248;28;92409;-38
2023/02/21 03:58:34;;;;;;;;;;;6.90;73.80;;;;;;5000674;28;93125;-38
2023/02/21 04:01:00;;;;;;;;;;;6.90;73.80;;;;;;5000799;28;92605;-39
2023/02/21 04:03:25;;;;;;;;;;;6.90;73.90;;;;;;5003559;28;93709;-38
2023/02/21 04:05:51;;;;;;;;;;;6.90;73.80;;;;;;5000594;28;92348;-38
2023/02/21 04:08:16;;;;;;;;;;;6.90;73.80;;;;;;5000957;28;93995;-38
2023/02/21 04:10:42;;;;;;;;;;;6.90;74.40;;;;;;5000601;28;93142;-38
2023/02/21 04:13:08;;;;;;;;;;;6.80;73.80;;;;;;5000799;28;92212;-38
2023/02/21 04:15:33;;;;;;;;;;;6.80;73.90;;;;;;4999975;28;93575;-38
2023/02/21 04:17:59;;;;;;;;;;;6.80;73.90;;;;;;5000125;28;94679;-38
2023/02/21 04:20:24;;;;;;;;;;;6.80;73.80;;;;;;5000776;28;92165;-38
2023/02/21 04:22:50;;;;;;;;;;;6.80;73.80;;;;;;5000481;28;93731;-38
2023/02/21 04:25:15;;;;;;;;;;;6.80;73.80;;;;;;5003103;28;94375;-38
2023/02/21 04:27:41;;;;;;;;;;;6.80;73.90;;;;;;5000660;28;93136;-38
2023/02/21 04:30:07;;;;;;;;;;;6.70;73.90;;;;;;4999989;28;94364;-38
2023/02/21 04:32:32;;;;;;;;;;;6.80;73.90;;;;;;5000947;28;91527;-38
2023/02/21 04:34:58;;;;;;;;;;;6.70;73.70;;;;;;5000473;28;93147;-38
2023/02/21 04:37:23;;;;;;;;;;;6.70;73.80;;;;;;4999551;28;94976;-38
2023/02/21 04:39:49;;;;;;;;;;;6.70;73.90;;;;;;4999543;28;93080;-38
2023/02/21 04:42:14;;;;;;;;;;;6.70;73.80;;;;;;5000313;28;95125;-38
2023/02/21 04:44:40;;;;;;;;;;;6.70;73.80;;;;;;4999806;28;94724;-38
2023/02/21 04:47:05;;;;;;;;;;;6.70;73.90;;;;;;5003315;28;92479;-38
2023/02/21 04:49:31;;;;;;;;;;;6.70;73.70;;;;;;4999634;28;94496;-38
2023/02/21 04:51:56;;;;;;;;;;;6.70;73.80;;;;;;4999997;28;92196;-38
2023/02/21 04:54:22;;;;;;;;;;;6.70;73.80;;;;;;5000069;28;93891;-38
2023/02/21 04:56:47;;;;;;;;;;;6.70;73.80;;;;;;4999906;28;93621;-38
2023/02/21 04:59:13;;;;;;;;;;;6.60;73.80;;;;;;4999969;28;92181;-38
2023/02/21 05:01:39;;;;;;;;;;;6.60;73.80;;;;;;4999827;28;94064;-38
2023/02/21 05:04:04;;;;;;;;;;;6.60;73.80;;;;;;4998656;28;95306;-38
2023/02/21 05:06:30;;;;;;;;;;;6.60;73.80;;;;;;4999616;28;92155;-37
2023/02/21 05:08:56;;;;;;;;;;;6.60;73.90;;;;;;5002733;28;93189;-39
2023/02/21 05:11:22;;;;;;;;;;;6.50;73.80;;;;;;4999943;28;92139;-39
2023/02/21 05:13:48;;;;;;;;;;;6.50;73.80;;;;;;4999857;28;93751;-38
2023/02/21 05:16:13;;;;;;;;;;;6.50;73.70;;;;;;4998984;28;94900;-38
2023/02/21 05:18:42;;;;;;;;;;;6.50;73.90;;;;;;4999530;28;92070;-38
2023/02/21 05:21:08;;;;;;;;;;;6.50;73.70;;;;;;5000149;28;93618;-38
2023/02/21 05:23:34;;;;;;;;;;;6.50;73.80;;;;;;4998688;28;94574;-38
2023/02/21 05:26:05;;;;;;;;;;;6.50;73.70;;;;;;4999640;28;92118;-38
2023/02/21 05:28:31;;;;;;;;;;;6.50;73.70;;;;;;4999200;28;93555;-37
2023/02/21 05:30:57;;;;;;;;;;;6.50;73.80;;;;;;5002046;28;94580;-38
2023/02/21 05:33:23;;;;;;;;;;;6.50;73.80;;;;;;4999619;28;93447;-38
2023/02/21 05:35:49;;;;;;;;;;;6.40;73.70;;;;;;4998774;28;94648;-38
2023/02/21 05:38:15;;;;;;;;;;;6.40;73.70;;;;;;4999175;28;92623;-38
2023/02/21 05:40:41;;;;;;;;;;;6.40;73.70;;;;;;4999786;28;92253;-38
2023/02/21 05:43:06;;;;;;;;;;;6.40;73.80;;;;;;4999108;28;93120;-38
2023/02/21 05:45:32;;;;;;;;;;;6.40;73.90;;;;;;4999967;28;91408;-38
2023/02/21 05:47:59;;;;;;;;;;;6.40;73.90;;;;;;4999303;28;93158;-38
2023/02/21 05:50:25;;;;;;;;;;;6.40;73.80;;;;;;4998602;28;93488;-38
2023/02/21 05:52:51;;;;;;;;;;;6.40;73.80;;;;;;5001687;28;93075;-38
2023/02/21 05:55:17;;;;;;;;;;;6.40;73.70;;;;;;4998802;28;93085;-38
2023/02/21 05:57:42;;;;;;;;;;;6.40;73.70;;;;;;4998028;28;92171;-38
2023/02/21 06:00:14;;;;;;;;;;;6.40;73.60;;;;;;4998999;28;93141;-38
2023/02/21 06:02:39;;;;;;;;;;;6.30;73.70;;;;;;4998686;28;95511;-38
2023/02/21 06:05:05;;;;;;;;;;;6.30;73.80;;;;;;4999005;28;92159;-38
2023/02/21 06:07:30;;;;;;;;;;;6.30;73.90;;;;;;4998498;28;93870;-38
2023/02/21 06:09:56;;;;;;;;;;;6.30;73.90;;;;;;4998976;28;93751;-38
2023/02/21 06:12:21;;;;;;;;;;;6.30;73.80;;;;;;5002148;28;92157;-37
2023/02/21 06:14:48;;;;;;;;;;;6.30;73.90;;;;;;4998505;28;93959;-38
2023/02/21 06:17:14;;;;;;;;;;;6.20;73.90;;;;;;4998324;28;93103;-38
2023/02/21 06:19:39;;;;;;;;;;;6.20;73.90;;;;;;4998873;28;94657;-38
2023/02/21 06:22:05;;;;;;;;;;;6.30;73.90;;;;;;4998252;28;94790;-38
2023/02/21 06:24:30;;;;;;;;;;;6.20;73.90;;;;;;4998873;28;92244;-39
2023/02/21 06:26:56;;;;;;;;;;;6.20;73.80;;;;;;4998901;28;94046;-38
2023/02/21 06:29:21;;;;;;;;;;;6.20;73.70;;;;;;4998193;28;94976;-38
2023/02/21 06:31:47;;;;;;;;;;;6.20;73.80;;;;;;4998700;28;92223;-38
2023/02/21 06:34:12;;;;;;;;;;;6.30;73.70;;;;;;5001688;28;94427;-38
2023/02/21 06:36:38;;;;;;;;;;;6.20;73.70;;;;;;4998468;28;92100;-38
2023/02/21 06:39:04;;;;;;;;;;;6.20;73.80;;;;;;4998770;28;93777;-38
2023/02/21 06:41:30;;;;;;;;;;;6.20;73.70;;;;;;4997412;28;95446;-39
2023/02/21 06:43:56;;;;;;;;;;;6.20;73.60;;;;;;4998639;28;92177;-38
2023/02/21 06:46:24;;;;;;;;;;;6.20;73.60;;;;;;4998643;28;93722;-38
2023/02/21 06:48:50;;;;;;;;;;;6.20;74.30;;;;;;4998239;28;93092;-38
2023/02/21 06:51:15;;;;;;;;;;;6.20;74.30;;;;;;4998516;28;92260;-38
2023/02/21 06:53:41;;;;;;;;;;;6.20;73.60;;;;;;4998322;28;93851;-38
2023/02/21 06:56:07;;;;;;;;;;;6.20;73.60;;;;;;5001105;28;94577;-38
2023/02/21 06:58:33;;;;;;;;;;;6.20;74.30;;;;;;4999161;28;92353;-39
2023/02/21 07:00:58;;;;;;;;;;;6.20;73.70;;;;;;4998155;28;93111;-38
2023/02/21 07:03:25;;;;;;;;;;;6.20;73.50;;;;;;4998352;28;92168;-38
2023/02/21 07:05:50;;;;;;;;;;;6.20;73.60;;;;;;4997252;28;94419;-38
2023/02/21 07:08:16;;;;;;;;;;;6.20;73.60;;;;;;4997846;28;93976;-38
2023/02/21 07:10:41;;;;;;;;;;;6.20;73.70;;;;;;5001543;28;92352;-38
2023/02/21 07:13:07;;;;;;;;;;;6.20;73.80;;;;;;5001830;28;93839;-38
2023/02/21 07:15:32;;;;;;;;;;;6.20;73.70;;;;;;5001332;28;93110;-39
2023/02/21 07:17:58;;;;;;;;;;;6.10;73.70;;;;;;5004774;28;92028;-38
2023/02/21 07:20:23;;;;;;;;;;;6.10;73.70;;;;;;5000997;28;94862;-38
2023/02/21 07:22:49;;;;;;;;;;;6.10;73.80;;;;;;5002090;28;91427;-39
2023/02/21 07:25:15;;;;;;;;;;;6.20;73.80;;;;;;5001778;28;93383;-38
2023/02/21 07:27:40;;;;;;;;;;;6.10;73.80;;;;;;5000966;28;94689;-38
2023/02/21 07:30:06;;;;;;;;;;;6.10;73.70;;;;;;5000789;28;93096;-38
2023/02/21 07:32:32;;;;;;;;;;;6.10;73.80;;;;;;5001372;28;95493;-39
2023/02/21 07:34:57;;;;;;;;;;;6.10;74.00;;;;;;5000926;28;94830;-38
2023/02/21 07:37:23;;;;;;;;;;;6.10;73.80;;;;;;5001361;28;92166;-38
2023/02/21 07:39:48;;;;;;;;;;;6.10;73.80;;;;;;5003827;28;93766;-38
2023/02/21 07:42:13;;;;;;;;;;;6.10;73.90;;;;;;5001594;28;92160;-39
2023/02/21 07:44:39;;;;;;;;;;;6.10;73.90;;;;;;5001297;28;93885;-38
2023/02/21 07:47:05;;;;;;;;;;;6.10;73.90;;;;;;5001023;28;93963;-38
2023/02/21 07:49:30;;;;;;;;;;;6.10;74.00;;;;;;5000986;28;92004;-38
2023/02/21 07:51:56;;;;;;;;;;;6.10;74.00;;;;;;5001100;28;94458;-38
2023/02/21 07:54:22;;;;;;;;;;;6.10;74.60;;;;;;4999792;28;95805;-38
2023/02/21 07:56:48;;;;;;;;;;;6.10;74.10;;;;;;5000984;28;92141;-38
2023/02/21 07:59:14;;;;;;;;;;;6.00;74.10;;;;;;5001177;28;93844;-38
2023/02/21 08:01:39;;;;;;;;;;;6.10;74.10;;;;;;5003677;28;94873;-38
2023/02/21 08:04:05;;;;;;;;;;;6.10;74.00;;;;;;5000782;28;94186;-38
2023/02/21 08:06:32;;;;;;;;;;;6.10;74.60;;;;;;4999852;28;94245;-38
2023/02/21 08:08:58;;;;;;;;;;;6.10;74.00;;;;;;5000807;28;92212;-38
2023/02/21 08:11:23;;;;;;;;;;;6.10;74.00;;;;;;5001621;28;93820;-38
2023/02/21 08:13:49;;;;;;;;;;;6.10;74.00;;;;;;5000643;28;93068;-38
2023/02/21 08:16:14;;;;;;;;;;;6.10;74.00;;;;;;5000856;28;92236;-38
2023/02/21 08:18:40;;;;;;;;;;;6.10;74.00;;;;;;5000500;28;92878;-38
2023/02/21 08:21:08;;;;;;;;;;;6.10;74.00;;;;;;5002160;28;94849;-39
2023/02/21 08:23:33;;;;;;;;;;;6.10;74.00;;;;;;5000857;28;95339;-38
2023/02/21 08:25:59;;;;;;;;;;;6.10;74.00;;;;;;4999992;28;94345;-38
2023/02/21 08:28:24;;;;;;;;;;;6.10;74.00;;;;;;5000681;28;92239;-38
2023/02/21 08:30:51;;;;;;;;;;;6.10;74.00;;;;;;5000707;28;92424;-38
2023/02/21 08:33:17;;;;;;;;;;;6.20;73.90;;;;;;5000102;28;93754;-38
2023/02/21 08:35:42;;;;;;;;;;;6.20;73.90;;;;;;5000827;28;91446;-38
2023/02/21 08:38:09;;;;;;;;;;;6.20;73.90;;;;;;5000491;28;92879;-38
2023/02/21 08:40:34;;;;;;;;;;;6.20;73.90;;;;;;4999664;28;94527;-38
2023/02/21 08:43:00;;;;;;;;;;;6.20;73.80;;;;;;5003071;28;92952;-38
2023/02/21 08:45:26;;;;;;;;;;;6.20;73.80;;;;;;4999824;28;94635;-38
2023/02/21 08:47:53;;;;;;;;;;;6.10;73.80;;;;;;5000189;28;92156;-38
2023/02/21 08:50:19;;;;;;;;;;;6.20;73.90;;;;;;5000395;28;92466;-38
2023/02/21 08:52:45;;;;;;;;;;;6.20;74.00;;;;;;4999714;28;94574;-38
2023/02/21 08:55:10;;;;;;;;;;;6.20;74.00;;;;;;5000014;28;92137;-38
2023/02/21 08:57:36;;;;;;;;;;;6.20;73.90;;;;;;4999982;28;93888;-38
2023/02/21 09:00:04;;;;;;;;;;;6.20;73.90;;;;;;4999945;28;93818;-38
2023/02/21 09:02:31;;;;;;;;;;;6.20;73.80;;;;;;5000139;28;92146;-38
2023/02/21 09:04:56;;;;;;;;;;;6.20;73.80;;;;;;5002623;28;94013;-38
2023/02/21 09:07:22;;;;;;;;;;;6.20;73.80;;;;;;4999037;28;93426;-38
2023/02/21 09:09:47;;;;;;;;;;;6.30;73.90;;;;;;4999951;28;94397;-38
2023/02/21 09:12:13;;;;;;;;;;;6.30;73.90;;;;;;4999791;28;92815;-38
2023/02/21 09:14:39;;;;;;;;;;;6.20;73.90;;;;;;4999710;28;92143;-38
2023/02/21 09:17:07;;;;;;;;;;;6.30;73.90;;;;;;4999734;28;93630;-38
2023/02/21 09:19:32;;;;;;;;;;;6.30;73.90;;;;;;4999192;28;94879;-38
2023/02/21 09:21:58;;;;;;;;;;;6.30;74.00;;;;;;4999692;28;92176;-38
2023/02/21 09:24:25;;;;;;;;;;;6.20;73.90;;;;;;5000150;28;92915;-38
2023/02/21 09:26:54;;;;;;;;;;;6.30;74.00;;;;;;5002087;28;94392;-38
2023/02/21 09:29:20;;;;;;;;;;;6.20;74.00;;;;;;4999680;28;93964;-37
2023/02/21 09:31:46;;;;;;;;;;;6.30;74.00;;;;;;4998539;28;94253;-38
2023/02/21 09:34:11;;;;;;;;;;;6.30;74.00;;;;;;4999448;28;92554;-38
2023/02/21 09:36:36;;;;;;;;;;;6.30;74.00;;;;;;4999349;28;94138;-38
2023/02/21 09:39:05;;;;;;;;;;;6.30;73.90;;;;;;4998859;28;94621;-38
2023/02/21 09:41:31;;;;;;;;;;;6.30;73.90;;;;;;4999514;28;92179;-38
2023/02/21 09:43:57;;;;;;;;;;;6.30;73.80;;;;;;4999689;28;92383;-38
2023/02/21 09:46:32;;;;;;;;;;;6.30;73.80;;;;;;4998959;28;94532;-38
2023/02/21 09:48:58;;;;;;;;;;;6.40;73.80;;;;;;5002702;28;91286;-38
2023/02/21 09:51:25;;;;;;;;;;;6.40;73.80;;;;;;4998817;28;94614;-38
2023/02/21 09:53:52;;;;;;;;;;;6.40;73.80;;;;;;4999416;28;92108;-38
2023/02/21 09:56:26;;;;;;;;;;;6.40;73.80;;;;;;4998739;28;94029;-38
2023/02/21 09:58:53;;;;;;;;;;;6.40;73.80;;;;;;4998707;28;94763;-38
2023/02/21 10:01:28;;;;;;;;;;;6.40;73.80;;;;;;4999074;28;92139;-38
2023/02/21 10:03:56;;;;;;;;;;;6.40;73.80;;;;;;4999198;28;94117;-38
2023/02/21 10:06:28;;;;;;;;;;;6.40;74.00;;;;;;4998131;28;94638;-38
2023/02/21 10:09:04;;;;;;;;;;;6.40;74.00;;;;;;4998828;28;92130;-38
2023/02/21 10:11:35;;;;;;;;;;;6.40;74.00;;;;;;5001520;28;94144;-38
2023/02/21 10:14:01;;;;;;;;;;;6.40;74.00;;;;;;4999511;28;91425;-38
2023/02/21 10:16:39;;;;;;;;;;;6.40;74.00;;;;;;4999063;28;92679;-38
2023/02/21 10:19:20;;;;;;;;;;;6.50;74.20;;;;;;4998330;28;93317;-38
2023/02/21 10:21:46;;;;;;;;;;;6.50;74.10;;;;;;4998199;28;93172;-39
2023/02/21 10:24:17;;;;;;;;;;;6.50;74.10;;;;;;4998920;28;94902;-38
2023/02/21 10:26:47;;;;;;;;;;;6.50;74.20;;;;;;4998600;28;93165;-38
2023/02/21 10:29:21;;;;;;;;;;;6.50;74.20;;;;;;4998768;28;92218;-38
2023/02/21 10:31:47;;;;;;;;;;;6.50;74.30;;;;;;5001492;28;93031;-38
2023/02/21 10:34:26;;;;;;;;;;;6.50;74.30;;;;;;4998657;28;92621;-38
2023/02/21 10:36:56;;;;;;;;;;;6.50;74.20;;;;;;4998812;28;93868;-39
2023/02/21 10:39:28;;;;;;;;;;;6.50;74.20;;;;;;4998712;28;93895;-38
2023/02/21 10:41:54;;;;;;;;;;;6.60;74.40;;;;;;4998579;28;92181;-38
2023/02/21 10:44:30;;;;;;;;;;;6.60;74.90;;;;;;5000143;28;94103;-38
2023/02/21 10:46:59;;;;;;;;;;;6.60;75.10;;;;;;5001020;28;95547;-38
2023/02/21 10:49:30;;;;;;;;;;;6.60;74.50;;;;;;5001924;28;92213;-38
2023/02/21 10:52:04;;;;;;;;;;;6.60;74.40;;;;;;5002094;28;94204;-38
2023/02/21 10:54:29;;;;;;;;;;;6.70;74.60;;;;;;5004367;28;94356;-38
2023/02/21 10:56:55;;;;;;;;;;;6.70;74.80;;;;;;5002235;28;92579;-39
2023/02/21 10:59:23;;;;;;;;;;;6.70;75.20;;;;;;5001623;28;93019;-38
2023/02/21 11:01:49;;;;;;;;;;;6.70;74.60;;;;;;5001959;28;92052;-38
2023/02/21 11:04:21;;;;;;;;;;;6.70;74.70;;;;;;5002228;28;93962;-39
2023/02/21 11:07:04;;;;;;;;;;;6.70;74.70;;;;;;5001041;28;94450;-38
2023/02/21 11:09:31;;;;;;;;;;;6.70;75.00;;;;;;5001557;28;92246;-39
2023/02/21 11:12:02;;;;;;;;;;;6.70;74.80;;;;;;5001194;28;94060;-39
2023/02/21 11:14:28;;;;;;;;;;;6.80;75.00;;;;;;5001181;28;93714;-38
2023/02/21 11:17:13;;;;;;;;;;;6.80;75.30;;;;;;5004888;28;92211;-39
2023/02/21 11:19:56;;;;;;;;;;;6.80;75.10;;;;;;5001034;28;94382;-38
2023/02/21 11:22:22;;;;;;;;;;;6.80;75.10;;;;;;5001686;28;92659;-38
2023/02/21 11:25:17;;;;;;;;;;;6.90;75.40;;;;;;5001347;28;93723;-39
2023/02/21 11:27:43;;;;;;;;;;;6.90;75.40;;;;;;4991288;28;94704;-38
2023/02/21 11:30:19;;;;;;;;;;;6.90;75.50;;;;;;5001899;28;91414;-38
2023/02/21 11:32:49;;;;;;;;;;;6.90;75.60;;;;;;5001781;28;92075;-38
2023/02/21 11:35:33;;;;;;;;;;;7.00;75.60;;;;;;5001075;28;93156;-38
2023/02/21 11:37:59;;;;;;;;;;;7.00;75.70;;;;;;5000889;28;93081;-38
2023/02/21 11:40:28;;;;;;;;;;;7.00;75.80;;;;;;5003816;28;95152;-38
2023/02/21 11:43:09;;;;;;;;;;;7.00;75.70;;;;;;5001356;28;92213;-38
2023/02/21 11:45:36;;;;;;;;;;;7.00;75.80;;;;;;5001123;28;93683;-38
2023/02/21 11:48:03;;;;;;;;;;;7.10;75.90;;;;;;5000562;28;94720;-39
2023/02/21 11:50:32;;;;;;;;;;;7.10;75.90;;;;;;5001041;28;92227;-39
2023/02/21 11:53:21;;;;;;;;;;;7.10;76.00;;;;;;5000963;28;94065;-38
2023/02/21 11:55:52;;;;;;;;;;;7.10;76.00;;;;;;5000406;28;92300;-39
2023/02/21 11:58:43;;;;;;;;;;;7.20;76.20;;;;;;5000955;28;92041;-38
2023/02/21 12:01:12;;;;;;;;;;;7.10;76.10;;;;;;4998969;28;92398;-38
2023/02/21 12:03:43;;;;;;;;;;;7.20;76.10;;;;;;5003033;28;95608;-38
2023/02/21 12:06:11;;;;;;;;;;;7.20;76.30;;;;;;5000742;28;93329;-38
2023/02/21 12:08:49;;;;;;;;;;;7.20;76.30;;;;;;5000179;28;94914;-38
2023/02/21 12:11:20;;;;;;;;;;;7.20;76.40;;;;;;5000742;28;92147;-38
2023/02/21 12:13:48;;;;;;;;;;;7.20;76.40;;;;;;5000651;28;93718;-39
2023/02/21 12:16:20;;;;;;;;;;;7.30;76.60;;;;;;5000270;28;94075;-38
2023/02/21 12:18:55;;;;;;;;;;;7.30;76.40;;;;;;5000625;28;92152;-38
2023/02/21 12:21:35;;;;;;;;;;;7.30;77.10;;;;;;5001084;28;94010;-38
2023/02/21 12:24:16;;;;;;;;;;;7.30;77.10;;;;;;4999942;28;94392;-38
2023/02/21 12:27:11;;;;;;;;;;;7.30;76.60;;;;;;5003977;28;92169;-38
2023/02/21 12:30:00;;;;;;;;;;;7.40;76.60;;;;;;4989695;28;95395;-38
2023/02/21 12:32:32;;;;;;;;;;;7.40;76.80;;;;;;5000825;28;92056;-38
2023/02/21 12:35:00;;;;;;;;;;;7.40;76.80;;;;;;5000543;28;94026;-39
2023/02/21 12:37:43;;;;;;;;;;;7.40;76.70;;;;;;5000091;28;94024;-39
2023/02/21 12:40:38;;;;;;;;;;;7.50;76.70;;;;;;5000346;28;92272;-38
2023/02/21 12:43:22;;;;;;;;;;;7.50;76.60;;;;;;4990640;28;93897;-38
2023/02/21 12:45:53;;;;;;;;;;;7.50;76.50;;;;;;4999822;28;94433;-38
2023/02/21 12:48:25;;;;;;;;;;;7.50;76.60;;;;;;5003680;28;91285;-38
2023/02/21 12:50:56;;;;;;;;;;;7.60;76.50;;;;;;4999626;28;93029;-38
2023/02/21 12:53:29;;;;;;;;;;;7.60;76.60;;;;;;5000107;28;92133;-39
2023/02/21 12:56:13;;;;;;;;;;;7.60;76.80;;;;;;4999847;28;93884;-39
2023/02/21 12:58:43;;;;;;;;;;;7.60;76.60;;;;;;4999810;28;93093;-38
2023/02/21 13:01:16;;;;;;;;;;;7.60;76.60;;;;;;4999967;28;92110;-39
2023/02/21 13:03:42;;;;;;;;;;;7.70;76.70;;;;;;5000047;28;93547;-38
2023/02/21 13:06:26;;;;;;;;;;;7.70;76.50;;;;;;4998841;28;94678;-38
2023/02/21 13:09:06;;;;;;;;;;;7.70;76.70;;;;;;4999392;28;92415;-38
2023/02/21 13:11:32;;;;;;;;;;;7.80;76.60;;;;;;5002637;28;93690;-39
2023/02/21 13:13:58;;;;;;;;;;;7.80;76.80;;;;;;5000177;28;91375;-38
2023/02/21 13:16:23;;;;;;;;;;;7.80;76.60;;;;;;4999949;28;93082;-39
2023/02/21 13:18:58;;;;;;;;;;;7.80;76.60;;;;;;4999348;28;94568;-38
2023/02/21 13:21:45;;;;;;;;;;;7.80;76.60;;;;;;4999143;28;93121;-38
2023/02/21 13:24:29;;;;;;;;;;;7.90;76.70;;;;;;4999509;28;94859;-39
2023/02/21 13:27:14;;;;;;;;;;;7.90;76.70;;;;;;4999101;28;94374;-38
2023/02/21 13:29:40;;;;;;;;;;;7.90;76.60;;;;;;4999827;28;92243;-38
2023/02/21 13:32:13;;;;;;;;;;;7.90;76.70;;;;;;4999657;28;94174;-38
2023/02/21 13:34:40;;;;;;;;;;;8.00;76.70;;;;;;5002364;28;92976;-39
2023/02/21 13:37:07;;;;;;;;;;;8.00;76.80;;;;;;4999511;28;93799;-38
2023/02/21 13:39:36;;;;;;;;;;;8.00;76.80;;;;;;4999246;28;93519;-38
2023/02/21 13:42:06;;;;;;;;;;;8.00;76.60;;;;;;4999485;28;92104;-38
2023/02/21 13:44:34;;;;;;;;;;;8.00;76.90;;;;;;4999623;28;92926;-39
2023/02/21 13:46:59;;;;;;;;;;;8.10;76.90;;;;;;4998078;28;95814;-38
2023/02/21 13:49:40;;;;;;;;;;;8.10;76.80;;;;;;4999289;28;92243;-38
2023/02/21 13:52:23;;;;;;;;;;;8.10;76.60;;;;;;4999138;28;93672;-38
2023/02/21 13:55:08;;;;;;;;;;;8.20;76.80;;;;;;4998766;28;93380;-38
2023/02/21 13:57:35;;;;;;;;;;;8.20;76.70;;;;;;5002724;28;92249;-39
2023/02/21 14:00:19;;;;;;;;;;;8.20;76.60;;;;;;4998763;28;93117;-39
2023/02/21 14:03:01;;;;;;;;;;;8.20;76.70;;;;;;4999253;28;92109;-38
2023/02/21 14:05:50;;;;;;;;;;;8.30;76.60;;;;;;4999339;28;94200;-38
2023/02/21 14:08:18;;;;;;;;;;;8.30;76.50;;;;;;4978074;28;94278;-38
2023/02/21 14:10:49;;;;;;;;;;;8.30;76.70;;;;;;4998945;28;92175;-39
2023/02/21 14:13:21;;;;;;;;;;;8.40;76.90;;;;;;4998422;28;93600;-38
2023/02/21 14:15:48;;;;;;;;;;;8.30;76.80;;;;;;4998318;28;94371;-38
2023/02/21 14:18:39;;;;;;;;;;;8.40;77.00;;;;;;4997857;28;91984;-39
2023/02/21 14:21:08;;;;;;;;;;;8.40;76.80;;;;;;4999738;28;93238;-39
2023/02/21 14:23:40;;;;;;;;;;;8.50;76.80;;;;;;4998806;28;92127;-39
2023/02/21 14:26:05;;;;;;;;;;;8.50;76.90;;;;;;4998926;28;93598;-38
2023/02/21 14:28:50;;;;;;;;;;;8.50;76.50;;;;;;4999010;28;93115;-38
2023/02/21 14:31:35;;;;;;;;;;;8.60;76.80;;;;;;4999144;28;91654;-38
2023/02/21 14:34:01;;;;;;;;;;;8.60;76.70;;;;;;4998574;28;92902;-39
2023/02/21 14:36:27;;;;;;;;;;;8.60;76.70;;;;;;4998109;28;94742;-39
2023/02/21 14:38:53;;;;;;;;;;;8.70;76.70;;;;;;4998074;28;93121;-38
2023/02/21 14:41:30;;;;;;;;;;;8.70;76.80;;;;;;5001240;28;95185;-39
2023/02/21 14:43:56;;;;;;;;;;;8.70;76.80;;;;;;4998660;28;92181;-39
2023/02/21 14:46:39;;;;;;;;;;;8.70;76.60;;;;;;4997437;28;94394;-38
2023/02/21 14:49:16;;;;;;;;;;;8.80;76.60;;;;;;4998222;28;94510;-39
2023/02/21 14:52:17;;;;;;;;;;;8.80;76.60;;;;;;4998536;28;92031;-39
2023/02/21 14:54:43;;;;;;;;;;;8.80;76.80;;;;;;4956949;28;92048;-39
2023/02/21 14:57:11;;;;;;;;;;;8.90;76.60;;;;;;4989519;28;92615;-38
2023/02/21 14:59:44;;;;;;;;;;;8.90;76.60;;;;;;4998905;28;92198;-39
2023/02/21 15:02:20;;;;;;;;;;;8.90;76.70;;;;;;4998504;28;94274;-39
2023/02/21 15:05:04;;;;;;;;;;;9.00;76.80;;;;;;5000333;28;93934;-39
2023/02/21 15:07:36;;;;;;;;;;;9.00;76.90;;;;;;4997931;28;96323;-38
2023/02/21 15:10:05;;;;;;;;;;;9.00;76.80;;;;;;4997819;28;93160;-39
2023/02/21 15:12:34;;;;;;;;;;;9.10;76.90;;;;;;4998453;28;92198;-38
2023/02/21 15:15:00;;;;;;;;;;;9.00;76.70;;;;;;4998300;28;93692;-39
2023/02/21 15:17:25;;;;;;;;;;;9.10;76.90;;;;;;4997777;28;94658;-38
2023/02/21 15:20:04;;;;;;;;;;;9.10;77.00;;;;;;4997998;28;92196;-39
2023/02/21 15:22:30;;;;;;;;;;;9.10;76.80;;;;;;4998601;28;93591;-39
2023/02/21 15:25:00;;;;;;;;;;;9.10;76.80;;;;;;4997666;28;94813;-39
2023/02/21 15:27:26;;;;;;;;;;;9.10;76.70;;;;;;5001115;28;92169;-39
2023/02/21 15:30:12;;;;;;;;;;;9.20;76.90;;;;;;4997691;28;95410;-38
2023/02/21 15:32:38;;;;;;;;;;;9.20;76.80;;;;;;5001693;28;92004;-38
2023/02/21 15:35:05;;;;;;;;;;;9.20;76.90;;;;;;5001409;28;93753;-39
2023/02/21 15:37:31;;;;;;;;;;;9.20;77.10;;;;;;5000824;28;94127;-39
2023/02/21 15:39:59;;;;;;;;;;;9.20;77.20;;;;;;5001622;28;92155;-38
2023/02/21 15:42:26;;;;;;;;;;;9.20;76.70;;;;;;5001364;28;94241;-38
2023/02/21 15:44:57;;;;;;;;;;;9.20;76.90;;;;;;5000763;28;94379;-38
2023/02/21 15:47:23;;;;;;;;;;;9.30;76.90;;;;;;5001753;28;91404;-39
2023/02/21 15:49:58;;;;;;;;;;;9.30;76.80;;;;;;5003601;28;92877;-39
2023/02/21 15:52:33;;;;;;;;;;;9.30;77.00;;;;;;5001250;28;92048;-39
2023/02/21 15:55:31;;;;;;;;;;;9.30;77.20;;;;;;5000502;28;92962;-39
2023/02/21 15:57:59;;;;;;;;;;;9.30;77.20;;;;;;4977494;28;94245;-38
2023/02/21 16:00:27;;;;;;;;;;;9.30;77.20;;;;;;5000877;28;92163;-39
2023/02/21 16:03:12;;;;;;;;;;;9.30;77.20;;;;;;5000926;28;93774;-38
2023/02/21 16:05:37;;;;;;;;;;;9.30;77.20;;;;;;5000179;28;94284;-39
2023/02/21 16:08:03;;;;;;;;;;;9.30;77.30;;;;;;5000724;28;92065;-39
2023/02/21 16:10:30;;;;;;;;;;;9.30;77.20;;;;;;5001091;28;93895;-38
2023/02/21 16:12:57;;;;;;;;;;;9.40;77.20;;;;;;5003906;28;93645;-40
2023/02/21 16:15:24;;;;;;;;;;;9.40;77.00;;;;;;5000826;28;92054;-38
2023/02/21 16:17:54;;;;;;;;;;;9.40;77.00;;;;;;4999919;28;94785;-38
2023/02/21 16:20:33;;;;;;;;;;;9.40;77.20;;;;;;4999927;28;93070;-39
2023/02/21 16:23:22;;;;;;;;;;;9.40;77.10;;;;;;5000780;28;95127;-38
2023/02/21 16:25:57;;;;;;;;;;;9.40;77.00;;;;;;5000425;28;93063;-38
2023/02/21 16:28:23;;;;;;;;;;;9.40;77.10;;;;;;5000408;28;92236;-39
2023/02/21 16:30:48;;;;;;;;;;;9.40;77.00;;;;;;5000712;28;93716;-38
2023/02/21 16:33:14;;;;;;;;;;;9.50;77.10;;;;;;5000074;28;94214;-39
2023/02/21 16:35:40;;;;;;;;;;;9.40;77.00;;;;;;5003712;28;92148;-38
2023/02/21 16:38:07;;;;;;;;;;;9.50;77.00;;;;;;5000296;28;95695;-38
2023/02/21 16:40:34;;;;;;;;;;;9.40;76.90;;;;;;5000297;28;92145;-39
2023/02/21 16:43:00;;;;;;;;;;;9.50;77.00;;;;;;4999780;28;93605;-39
2023/02/21 16:45:27;;;;;;;;;;;9.40;76.90;;;;;;4999035;28;95226;-38
2023/02/21 16:48:03;;;;;;;;;;;9.50;76.90;;;;;;5000256;28;92124;-38
2023/02/21 16:50:33;;;;;;;;;;;9.40;76.80;;;;;;5000234;28;93793;-39
2023/02/21 16:52:59;;;;;;;;;;;9.50;76.80;;;;;;4999717;28;94640;-38
2023/02/21 16:55:25;;;;;;;;;;;9.50;76.80;;;;;;5003234;28;92136;-39
2023/02/21 16:57:54;;;;;;;;;;;9.50;76.70;;;;;;4999751;28;94800;-38
2023/02/21 17:00:20;;;;;;;;;;;9.50;76.70;;;;;;4999910;28;92165;-38